sensor_id;sensor_type;location;lat;lon;timestamp;P1;durP1;ratioP1;P2;durP2;ratioP2
64873;SDS011;51367;45.204;38.576;2023-05-19T00:01:31;5.45;;;3.70;;
64873;SDS011;51367;45.204;38.576;2023-05-19T00:03:58;3.13;;;2.88;;
64873;SDS011;51367;45.204;38.576;2023-05-19T00:06:27;6.35;;;2.90;;
64873;SDS011;51367;45.204;38.576;2023-05-19T00:08:58;2.00;;;1.77;;
64873;SDS011;51367;45.204;38.576;2023-05-19T00:11:26;2.60;;;2.40;;
64873;SDS011;51367;45.204;38.576;2023-05-19T00:13:53;4.03;;;2.80;;
64873;SDS011;51367;45.204;38.576;2023-05-19T00:16:21;16.80;;;3.45;;
64873;SDS011;51367;45.204;38.576;2023-05-19T00:18:48;3.70;;;3.13;;
64873;SDS011;51367;45.204;38.576;2023-05-19T00:21:14;2.35;;;2.15;;
64873;SDS011;51367;45.204;38.576;2023-05-19T00:23:41;3.92;;;3.35;;
64873;SDS011;51367;45.204;38.576;2023-05-19T00:26:06;4.15;;;2.50;;
64873;SDS011;51367;45.204;38.576;2023-05-19T00:28:32;3.22;;;2.92;;
64873;SDS011;51367;45.204;38.576;2023-05-19T00:30:58;4.10;;;2.83;;
64873;SDS011;51367;45.204;38.576;2023-05-19T00:33:25;2.55;;;2.22;;
64873;SDS011;51367;45.204;38.576;2023-05-19T00:35:51;4.82;;;3.05;;
64873;SDS011;51367;45.204;38.576;2023-05-19T00:38:18;2.55;;;1.90;;
64873;SDS011;51367;45.204;38.576;2023-05-19T00:40:44;5.13;;;2.50;;
64873;SDS011;51367;45.204;38.576;2023-05-19T00:43:11;4.47;;;2.72;;
64873;SDS011;51367;45.204;38.576;2023-05-19T00:45:37;2.25;;;2.05;;
64873;SDS011;51367;45.204;38.576;2023-05-19T00:48:04;3.10;;;2.80;;
64873;SDS011;51367;45.204;38.576;2023-05-19T00:50:29;4.13;;;2.90;;
64873;SDS011;51367;45.204;38.576;2023-05-19T00:52:56;6.38;;;4.03;;
64873;SDS011;51367;45.204;38.576;2023-05-19T00:55:22;3.45;;;3.15;;
64873;SDS011;51367;45.204;38.576;2023-05-19T00:57:53;2.70;;;2.30;;
64873;SDS011;51367;45.204;38.576;2023-05-19T01:00:21;3.95;;;3.00;;
64873;SDS011;51367;45.204;38.576;2023-05-19T01:02:47;2.42;;;2.22;;
64873;SDS011;51367;45.204;38.576;2023-05-19T01:05:15;2.85;;;2.65;;
64873;SDS011;51367;45.204;38.576;2023-05-19T01:07:41;4.57;;;3.25;;
64873;SDS011;51367;45.204;38.576;2023-05-19T01:10:07;2.75;;;2.10;;
64873;SDS011;51367;45.204;38.576;2023-05-19T01:12:34;13.05;;;3.67;;
64873;SDS011;51367;45.204;38.576;2023-05-19T01:15:01;2.40;;;1.90;;
64873;SDS011;51367;45.204;38.576;2023-05-19T01:17:31;3.70;;;3.20;;
64873;SDS011;51367;45.204;38.576;2023-05-19T01:31:37;5.72;;;2.78;;
64873;SDS011;51367;45.204;38.576;2023-05-19T01:34:06;2.80;;;2.60;;
64873;SDS011;51367;45.204;38.576;2023-05-19T01:36:35;2.35;;;2.17;;
64873;SDS011;51367;45.204;38.576;2023-05-19T01:39:02;6.63;;;2.70;;
64873;SDS011;51367;45.204;38.576;2023-05-19T01:41:29;3.35;;;3.05;;
64873;SDS011;51367;45.204;38.576;2023-05-19T01:43:56;2.20;;;2.03;;
64873;SDS011;51367;45.204;38.576;2023-05-19T01:46:22;1.83;;;1.73;;
64873;SDS011;51367;45.204;38.576;2023-05-19T01:48:49;2.25;;;2.13;;
64873;SDS011;51367;45.204;38.576;2023-05-19T01:51:18;3.58;;;2.53;;
64873;SDS011;51367;45.204;38.576;2023-05-19T01:53:44;5.15;;;2.95;;
64873;SDS011;51367;45.204;38.576;2023-05-19T01:56:10;2.25;;;2.05;;
64873;SDS011;51367;45.204;38.576;2023-05-19T02:07:08;4.40;;;2.80;;
64873;SDS011;51367;45.204;38.576;2023-05-19T02:09:43;2.92;;;2.63;;
64873;SDS011;51367;45.204;38.576;2023-05-19T02:12:23;4.35;;;2.90;;
64873;SDS011;51367;45.204;38.576;2023-05-19T02:15:02;6.20;;;3.75;;
64873;SDS011;51367;45.204;38.576;2023-05-19T02:17:32;6.43;;;3.05;;
64873;SDS011;51367;45.204;38.576;2023-05-19T02:20:01;2.55;;;2.35;;
64873;SDS011;51367;45.204;38.576;2023-05-19T02:22:29;6.28;;;2.97;;
64873;SDS011;51367;45.204;38.576;2023-05-19T02:24:56;5.75;;;4.05;;
64873;SDS011;51367;45.204;38.576;2023-05-19T02:27:22;16.70;;;10.35;;
64873;SDS011;51367;45.204;38.576;2023-05-19T02:29:48;19.20;;;9.02;;
64873;SDS011;51367;45.204;38.576;2023-05-19T02:32:14;19.67;;;9.93;;
64873;SDS011;51367;45.204;38.576;2023-05-19T02:34:40;23.23;;;8.43;;
64873;SDS011;51367;45.204;38.576;2023-05-19T02:37:15;19.70;;;6.20;;
64873;SDS011;51367;45.204;38.576;2023-05-19T02:39:42;9.52;;;4.93;;
64873;SDS011;51367;45.204;38.576;2023-05-19T02:42:09;2.80;;;2.38;;
64873;SDS011;51367;45.204;38.576;2023-05-19T02:44:36;3.75;;;2.97;;
64873;SDS011;51367;45.204;38.576;2023-05-19T02:47:02;35.03;;;2.20;;
64873;SDS011;51367;45.204;38.576;2023-05-19T02:49:28;6.55;;;3.47;;
64873;SDS011;51367;45.204;38.576;2023-05-19T02:52:02;2.37;;;2.03;;
64873;SDS011;51367;45.204;38.576;2023-05-19T02:54:29;5.55;;;3.47;;
64873;SDS011;51367;45.204;38.576;2023-05-19T02:56:55;2.60;;;2.40;;
64873;SDS011;51367;45.204;38.576;2023-05-19T02:59:22;2.88;;;2.60;;
64873;SDS011;51367;45.204;38.576;2023-05-19T03:01:49;3.88;;;2.67;;
64873;SDS011;51367;45.204;38.576;2023-05-19T03:04:17;3.75;;;2.10;;
64873;SDS011;51367;45.204;38.576;2023-05-19T03:06:44;2.67;;;2.22;;
64873;SDS011;51367;45.204;38.576;2023-05-19T03:09:11;3.38;;;1.88;;
64873;SDS011;51367;45.204;38.576;2023-05-19T03:11:40;2.35;;;2.15;;
64873;SDS011;51367;45.204;38.576;2023-05-19T03:14:06;1.73;;;1.63;;
64873;SDS011;51367;45.204;38.576;2023-05-19T03:16:36;4.68;;;2.80;;
64873;SDS011;51367;45.204;38.576;2023-05-19T03:19:02;3.42;;;2.20;;
64873;SDS011;51367;45.204;38.576;2023-05-19T03:21:28;2.35;;;2.15;;
64873;SDS011;51367;45.204;38.576;2023-05-19T03:23:54;2.00;;;1.80;;
64873;SDS011;51367;45.204;38.576;2023-05-19T03:26:20;3.20;;;2.90;;
64873;SDS011;51367;45.204;38.576;2023-05-19T03:28:47;4.90;;;3.47;;
64873;SDS011;51367;45.204;38.576;2023-05-19T03:31:13;3.50;;;2.50;;
64873;SDS011;51367;45.204;38.576;2023-05-19T03:33:40;6.85;;;3.33;;
64873;SDS011;51367;45.204;38.576;2023-05-19T03:36:06;4.82;;;2.95;;
64873;SDS011;51367;45.204;38.576;2023-05-19T03:38:35;3.40;;;2.92;;
64873;SDS011;51367;45.204;38.576;2023-05-19T03:41:01;2.58;;;2.38;;
64873;SDS011;51367;45.204;38.576;2023-05-19T03:43:27;12.70;;;2.45;;
64873;SDS011;51367;45.204;38.576;2023-05-19T03:45:57;1.92;;;1.83;;
64873;SDS011;51367;45.204;38.576;2023-05-19T03:48:51;3.03;;;2.25;;
64873;SDS011;51367;45.204;38.576;2023-05-19T03:51:22;2.88;;;2.55;;
64873;SDS011;51367;45.204;38.576;2023-05-19T03:53:52;2.30;;;1.98;;
64873;SDS011;51367;45.204;38.576;2023-05-19T03:56:18;6.75;;;2.92;;
64873;SDS011;51367;45.204;38.576;2023-05-19T03:58:47;4.50;;;2.67;;
64873;SDS011;51367;45.204;38.576;2023-05-19T04:01:14;2.95;;;2.40;;
64873;SDS011;51367;45.204;38.576;2023-05-19T04:03:40;4.50;;;3.42;;
64873;SDS011;51367;45.204;38.576;2023-05-19T04:06:06;3.03;;;2.55;;
64873;SDS011;51367;45.204;38.576;2023-05-19T04:08:33;4.03;;;2.40;;
64873;SDS011;51367;45.204;38.576;2023-05-19T04:10:59;1.92;;;1.77;;
64873;SDS011;51367;45.204;38.576;2023-05-19T04:13:25;2.45;;;2.25;;
64873;SDS011;51367;45.204;38.576;2023-05-19T04:15:51;2.47;;;2.28;;
64873;SDS011;51367;45.204;38.576;2023-05-19T04:18:17;3.50;;;2.88;;
64873;SDS011;51367;45.204;38.576;2023-05-19T04:20:43;5.13;;;3.00;;
64873;SDS011;51367;45.204;38.576;2023-05-19T04:23:08;4.47;;;2.72;;
64873;SDS011;51367;45.204;38.576;2023-05-19T04:25:34;3.58;;;3.00;;
64873;SDS011;51367;45.204;38.576;2023-05-19T04:28:00;3.28;;;2.97;;
64873;SDS011;51367;45.204;38.576;2023-05-19T04:30:28;3.20;;;2.90;;
64873;SDS011;51367;45.204;38.576;2023-05-19T04:32:54;11.20;;;2.55;;
64873;SDS011;51367;45.204;38.576;2023-05-19T04:35:22;3.80;;;3.00;;
64873;SDS011;51367;45.204;38.576;2023-05-19T04:37:49;3.78;;;2.83;;
64873;SDS011;51367;45.204;38.576;2023-05-19T04:40:23;2.90;;;2.42;;
64873;SDS011;51367;45.204;38.576;2023-05-19T04:42:50;4.53;;;2.55;;
64873;SDS011;51367;45.204;38.576;2023-05-19T04:45:18;3.50;;;3.20;;
64873;SDS011;51367;45.204;38.576;2023-05-19T04:47:47;3.08;;;2.60;;
64873;SDS011;51367;45.204;38.576;2023-05-19T04:50:14;4.50;;;2.97;;
64873;SDS011;51367;45.204;38.576;2023-05-19T04:52:41;3.45;;;2.88;;
64873;SDS011;51367;45.204;38.576;2023-05-19T04:55:10;3.22;;;2.92;;
64873;SDS011;51367;45.204;38.576;2023-05-19T04:57:36;16.75;;;3.30;;
64873;SDS011;51367;45.204;38.576;2023-05-19T05:00:04;7.90;;;3.50;;
64873;SDS011;51367;45.204;38.576;2023-05-19T05:02:38;13.23;;;3.13;;
64873;SDS011;51367;45.204;38.576;2023-05-19T05:05:05;3.80;;;3.03;;
64873;SDS011;51367;45.204;38.576;2023-05-19T05:07:32;4.90;;;2.47;;
64873;SDS011;51367;45.204;38.576;2023-05-19T05:09:59;4.05;;;2.90;;
64873;SDS011;51367;45.204;38.576;2023-05-19T05:12:25;3.95;;;3.17;;
64873;SDS011;51367;45.204;38.576;2023-05-19T05:14:51;2.95;;;2.58;;
64873;SDS011;51367;45.204;38.576;2023-05-19T05:17:18;2.80;;;1.90;;
64873;SDS011;51367;45.204;38.576;2023-05-19T05:19:44;7.18;;;2.72;;
64873;SDS011;51367;45.204;38.576;2023-05-19T05:22:11;2.53;;;2.33;;
64873;SDS011;51367;45.204;38.576;2023-05-19T05:24:38;2.53;;;2.30;;
64873;SDS011;51367;45.204;38.576;2023-05-19T05:27:05;3.67;;;2.85;;
64873;SDS011;51367;45.204;38.576;2023-05-19T05:29:32;3.28;;;2.92;;
64873;SDS011;51367;45.204;38.576;2023-05-19T05:32:00;5.68;;;3.00;;
64873;SDS011;51367;45.204;38.576;2023-05-19T05:34:27;3.92;;;2.42;;
64873;SDS011;51367;45.204;38.576;2023-05-19T05:36:54;2.63;;;2.42;;
64873;SDS011;51367;45.204;38.576;2023-05-19T05:39:21;4.68;;;3.05;;
64873;SDS011;51367;45.204;38.576;2023-05-19T05:41:47;3.40;;;2.75;;
64873;SDS011;51367;45.204;38.576;2023-05-19T05:44:13;4.78;;;3.15;;
64873;SDS011;51367;45.204;38.576;2023-05-19T05:46:42;2.38;;;2.17;;
64873;SDS011;51367;45.204;38.576;2023-05-19T05:49:08;2.58;;;2.38;;
64873;SDS011;51367;45.204;38.576;2023-05-19T05:51:38;4.63;;;2.45;;
64873;SDS011;51367;45.204;38.576;2023-05-19T05:54:07;8.95;;;2.95;;
64873;SDS011;51367;45.204;38.576;2023-05-19T05:56:41;2.60;;;2.40;;
64873;SDS011;51367;45.204;38.576;2023-05-19T05:59:08;4.07;;;2.22;;
64873;SDS011;51367;45.204;38.576;2023-05-19T06:01:34;3.28;;;2.42;;
64873;SDS011;51367;45.204;38.576;2023-05-19T06:04:03;2.92;;;2.20;;
64873;SDS011;51367;45.204;38.576;2023-05-19T06:06:29;14.05;;;3.33;;
64873;SDS011;51367;45.204;38.576;2023-05-19T06:08:56;4.38;;;2.55;;
64873;SDS011;51367;45.204;38.576;2023-05-19T06:11:23;3.30;;;3.00;;
64873;SDS011;51367;45.204;38.576;2023-05-19T06:13:50;3.15;;;2.15;;
64873;SDS011;51367;45.204;38.576;2023-05-19T06:16:42;3.85;;;2.83;;
64873;SDS011;51367;45.204;38.576;2023-05-19T06:19:08;8.20;;;2.58;;
64873;SDS011;51367;45.204;38.576;2023-05-19T06:21:34;4.68;;;3.25;;
64873;SDS011;51367;45.204;38.576;2023-05-19T06:24:00;2.83;;;2.63;;
64873;SDS011;51367;45.204;38.576;2023-05-19T06:26:26;2.80;;;2.55;;
64873;SDS011;51367;45.204;38.576;2023-05-19T06:28:52;9.25;;;3.35;;
64873;SDS011;51367;45.204;38.576;2023-05-19T06:31:19;4.15;;;2.38;;
64873;SDS011;51367;45.204;38.576;2023-05-19T06:33:51;3.03;;;2.47;;
64873;SDS011;51367;45.204;38.576;2023-05-19T06:36:18;3.85;;;2.70;;
64873;SDS011;51367;45.204;38.576;2023-05-19T06:38:46;9.35;;;3.58;;
64873;SDS011;51367;45.204;38.576;2023-05-19T06:41:12;2.72;;;2.53;;
64873;SDS011;51367;45.204;38.576;2023-05-19T06:43:39;5.22;;;2.30;;
64873;SDS011;51367;45.204;38.576;2023-05-19T06:46:05;6.10;;;2.92;;
64873;SDS011;51367;45.204;38.576;2023-05-19T06:48:32;4.00;;;3.00;;
64873;SDS011;51367;45.204;38.576;2023-05-19T06:50:58;2.72;;;2.53;;
64873;SDS011;51367;45.204;38.576;2023-05-19T06:53:26;4.63;;;2.75;;
64873;SDS011;51367;45.204;38.576;2023-05-19T06:55:53;5.03;;;2.88;;
64873;SDS011;51367;45.204;38.576;2023-05-19T06:58:21;2.33;;;1.88;;
64873;SDS011;51367;45.204;38.576;2023-05-19T07:00:47;2.35;;;2.15;;
64873;SDS011;51367;45.204;38.576;2023-05-19T07:03:15;2.60;;;2.40;;
